Tiempo atmosférico en la estación meteorológica de Ripoll, Girona (671 m.)



Fecha
DESCASC
Temp. máxima en grados centígrados (hora)
DESCASC
Temp. mínima en grados centígrados (hora)
DESCASC
Temp. media en grados centígrados
DESCASC
Racha de viento máxima en m/sg (hora)
DESCASC
Velocidad máxima media en intervalos de 10 minutos(hora)
DESCASC
Precipitaciones diarias en mm
DESCASC
Precipitaciones de 00:00 a 06:00 en mm
DESCASC
Precipitaciones de 06:00 a 12:00 en mm
DESCASC
Precipitaciones de 12:00 a 18:00 en mm
DESCASC
Precipitaciones de 18:00 a 24:00 en mm
DESCASC
14-12-2019 9.7 (14:40) 3.2 (07:20) 6.4 6.11 (12:50) 3.33 (12:50) 0 0 0 0 0
13-12-2019 16.1 (14:30) 2.6 (05:50) 9.4 7.22 (13:40) 3.61 (12:50) 0.8 0 0.6 0.2 0
12-12-2019 7.5 (13:20) 1.6 (00:30) 4.6 6.39 (13:20) 3.61 (13:40) 0 0 0 0 0
11-12-2019 8.5 (14:00) -0.5 (-00:0) 4 5.83 (21:00) 3.06 (14:20) 0 0 0 0 0
10-12-2019 13.2 (14:30) 0.8 (00:00) 7 20 (04:40) 6.11 (04:50) 0 0 0 0 0
09-12-2019 12.1 (15:20) 1.1 (00:00) 6.6 14.17 (16:00) 4.72 (13:00) 0 0 0 0 0
08-12-2019 12.4 (14:10) 0.2 (00:00) 6.3 4.72 (14:30) 2.78 (14:50) 0 0 0 0 0
07-12-2019 14.1 (14:40) 2 (00:00) 8.1 5 (15:20) 2.78 (15:40) 0 0 0 0 0
06-12-2019 12.4 (15:00) 3.1 (00:00) 7.7 4.72 (13:40) 2.5 (12:40) 0 0 0 0 0
05-12-2019 10.1 (15:20) 4.9 (00:00) 7.5 6.94 (13:20) 2.78 (13:40) 8 4.7 3.2 0.1 0
04-12-2019 9.6 (04:10) 7.2 (00:00) 8.4 11.94 (08:20) 4.72 (08:20) 27.9 0 3 10.8 14.1
03-12-2019 11.2 (13:50) -1.9 (-00:0) 4.6 8.33 (22:00) 3.33 (15:30) 0 0 0 0 0
02-12-2019 12.7 (14:50) -0.3 (00:00) 6.2 4.72 (14:50) 2.22 (14:20) 0 0 0 0 0
01-12-2019 12.5 (14:50) 3.6 (00:00) 8 5.28 (13:00) 3.33 (15:50) 1.2 1.1 0.1 0 0
30-11-2019 14.2 (14:50) 5.5 (00:00) 9.8 6.94 (15:40) 3.61 (15:40) 0 0 0 0 0
29-11-2019 14 (14:00) 3.9 (00:00) 9 5 (13:20) 2.78 (13:20) 0 0 0 0 0
28-11-2019 13.7 (14:50) 2.3 (00:00) 8 5.56 (12:10) 3.06 (13:30) 0 0 0 0 0
27-11-2019 -- (--) -- (--) -- 6.11 (16:30) 3.33 (16:30) 0 0 0 0 0
26-11-2019 13.7 (14:10) -0.9 (-00:0) 6.4 6.39 (14:50) 3.89 (15:00) 0.1 0 0 0 0.1
25-11-2019 14.1 (15:30) 0.5 (00:00) 7.3 4.17 (14:20) 2.22 (15:50) 0 0 0 0 0
24-11-2019 12.1 (13:40) 0.4 (00:00) 6.3 6.94 (15:00) 4.17 (15:10) 0 0 0 0 0
23-11-2019 -- (--) -- (--) -- 7.22 (21:30) 3.33 (20:10) 8.5 8.5 0 0 0
22-11-2019 -- (--) -- (--) -- 6.67 (15:10) 2.5 (15:00) 27.5 0 1.3 1.5 24.7
21-11-2019 -- (--) -- (--) -- 7.78 (15:20) 3.89 (12:00) 0 0 0 0 0
20-11-2019 -- (--) -- (--) -- 7.22 (14:20) 3.33 (14:20) 0 0 0 0 0
19-11-2019 -- (--) -- (--) -- 6.11 (14:00) 3.61 (14:00) 0 0 0 0 0
18-11-2019 10.3 (14:50) -1.9 (-00:0) 4.2 4.72 (16:00) 2.5 (15:50) 0 0 0 0 0
17-11-2019 6.2 (16:20) -2.6 (-00:0) 1.8 6.11 (12:10) 3.61 (12:20) 0 0 0 0 0
16-11-2019 9.2 (13:20) -1.9 (-00:0) 3.6 6.39 (14:10) 3.61 (14:10) 0 0 0 0 0
15-11-2019 8.3 (13:30) -0.3 (00:00) 4 7.22 (13:50) 3.61 (15:10) 0 0 0 0 0

Gráficas

Temp. máximas Temp. mínimas Temp. medias Precipitaciones Rachas de viento máximas Velocidades máximas media en intervalos de 10 minutos

Datos horarios

Fecha y hora oficial Temperatura (ºC) Velocidad del viento (km/h) Dirección del viento Racha (km/h) Dirección de racha Precipitación (mm) Presión (hPa) Tendencia (hPa) Humedad (%)
2019-12-14 23:00:00 5.2 0 Calma 4 Nordeste 0 -- -- --
2019-12-14 22:00:00 5.2 0 Calma 6 Norte 0 -- -- --
2019-12-14 21:00:00 5 0 Calma 4 Norte 0 -- -- --
2019-12-14 20:00:00 4.6 0 Calma 2 Nordeste 0 -- -- --
2019-12-14 19:00:00 5.1 0 Calma 2 Sur 0 -- -- --
2019-12-14 18:00:00 6.6 0 Calma 3 Sudeste 0 -- -- --
2019-12-14 17:00:00 8.6 0 Calma 12 Sur 0 -- -- --
2019-12-14 16:00:00 9.2 5 Sur 10 Sur 0 -- -- --
2019-12-14 15:00:00 9.6 7 Sur 14 Sur 0 -- -- --
2019-12-14 14:00:00 9.2 6 Sur 18 Sur 0 -- -- --
2019-12-14 13:00:00 8.8 11 Sur 22 Sur 0 -- -- --
2019-12-14 12:00:00 8.7 4 Norte 10 Norte 0 -- -- --
2019-12-14 11:00:00 7.4 3 Nordeste 8 Nordeste 0 -- -- --
2019-12-14 10:00:00 5 0 Calma 2 Sudeste 0 -- -- --
2019-12-14 09:00:00 3.4 0 Calma 8 Sudeste 0 -- -- --
2019-12-14 08:00:00 3.5 0 Calma 3 Oeste 0 -- -- --
2019-12-14 07:00:00 3.5 0 Calma 8 Sudeste 0 -- -- --
2019-12-14 06:00:00 4.4 2 Sur 5 Sudeste 0 -- -- --
2019-12-14 05:00:00 4.9 0 Calma 6 Noroeste 0 -- -- --
2019-12-14 04:00:00 4.6 0 Calma 8 Noroeste 0 -- -- --
2019-12-14 03:00:00 3.8 0 Calma 3 Sudeste 0 -- -- --
2019-12-14 02:00:00 3.6 0 Calma 6 Noroeste 0 -- -- --
2019-12-14 01:00:00 4.1 0 Calma 5 Sur 0 -- -- --
2019-12-14 00:00:00 4.6 0 Calma 5 Sudeste 0 -- -- --
2019-12-13 23:00:00 5 0 Calma 5 Sudeste 0 -- -- --
2019-12-13 22:00:00 6.1 0 Calma 3 Sudeste 0 -- -- --
2019-12-13 21:00:00 7.1 0 Calma 5 Sudeste 0 -- -- --
2019-12-13 20:00:00 7.8 0 Calma 9 Sur 0 -- -- --
2019-12-13 19:00:00 8.6 2 Sur 9 Sur 0 -- -- --
2019-12-13 18:00:00 10 0 Calma 10 Nordeste 0 -- -- --
2019-12-13 17:00:00 11.7 0 Calma 10 Oeste 0 -- -- --
2019-12-13 16:00:00 13.9 0 Calma 14 Sudeste 0.1 -- -- --
2019-12-13 15:00:00 15 9 Nordeste 22 Nordeste 0.1 -- -- --
2019-12-13 14:00:00 14.9 10 Sur 26 Sur 0 -- -- --
2019-12-13 13:00:00 14 10 Sudeste 22 Sur 0 -- -- --
2019-12-13 12:00:00 12.1 9 Sur 17 Sur 0 -- -- --
2019-12-13 11:00:00 9.2 4 Norte 13 Sudoeste 0 -- -- --
2019-12-13 10:00:00 6.1 0 Calma 6 Oeste 0.1 -- -- --
2019-12-13 09:00:00 3.7 0 Calma 5 Sur 0 -- -- --
2019-12-13 08:00:00 3.3 0 Calma 9 Sur 0.5 -- -- --
2019-12-13 07:00:00 2.9 0 Calma 9 Sur 0 -- -- --
2019-12-13 06:00:00 2.6 0 Calma 8 Sudeste 0 -- -- --
2019-12-13 05:00:00 3 2 Sur 9 Sudoeste 0 -- -- --
2019-12-13 04:00:00 3.4 2 Sur 12 Oeste 0 -- -- --
2019-12-13 03:00:00 3.6 2 Sur 10 Sudoeste 0 -- -- --
2019-12-13 02:00:00 4.2 5 Sur 14 Sudoeste 0 -- -- --
2019-12-13 01:00:00 4.3 6 Sur 14 Sur 0 -- -- --
2019-12-13 00:00:00 4.4 4 Sudoeste 11 Sur 0 -- -- --
2019-12-12 23:00:00 4.8 6 Sudoeste 12 Sudoeste 0 -- -- --
2019-12-12 22:00:00 5.2 6 Sur 13 Sudeste 0 -- -- --
2019-12-12 21:00:00 5.5 6 Sur 17 Sur 0 -- -- --
2019-12-12 20:00:00 5.5 6 Sur 12 Sur 0 -- -- --
2019-12-12 19:00:00 5.5 6 Sur 12 Sur 0 -- -- --
2019-12-12 18:00:00 5.2 4 Sur 12 Sudoeste 0 -- -- --
2019-12-12 17:00:00 5.9 6 Sur 12 Sudoeste 0 -- -- --
2019-12-12 16:00:00 6.3 6 Sudeste 16 Sudeste 0 -- -- --
2019-12-12 15:00:00 6.3 6 Sudeste 23 Sudeste 0 -- -- --
2019-12-12 14:00:00 6.5 11 Sudeste 23 Sudeste 0 -- -- --
2019-12-12 13:00:00 7.1 9 Sur 16 Sur 0 -- -- --
2019-12-12 12:00:00 5.4 3 Sur 10 Sudeste 0 -- -- --
2019-12-12 11:00:00 3.7 2 Sudeste 12 Sur 0 -- -- --
2019-12-12 10:00:00 3.1 6 Sur 10 Sur 0 -- -- --
2019-12-12 09:00:00 2.8 0 Calma 8 Sur 0 -- -- --
2019-12-12 08:00:00 2.5 0 Calma 11 Sur 0 -- -- --
2019-12-12 07:00:00 2.5 6 Sur 13 Sur 0 -- -- --
2019-12-12 06:00:00 2.6 0 Calma 3 Sur 0 -- -- --
2019-12-12 05:00:00 2.4 2 Sur 5 Sur 0 -- -- --
2019-12-12 04:00:00 2.2 0 Calma 6 Sudeste 0 -- -- --
2019-12-12 03:00:00 2 0 Calma 3 Sudoeste 0 -- -- --
2019-12-12 02:00:00 2.1 0 Calma 5 Sudeste 0 -- -- --
2019-12-12 01:00:00 1.7 0 Calma 5 Sur 0 -- -- --
2019-12-12 00:00:00 1.7 0 Calma 7 Sudeste 0 -- -- --
2019-12-11 23:00:00 1.8 4 Sudeste 6 Sudeste 0 -- -- --
2019-12-11 22:00:00 2 0 Calma 17 Sudoeste 0 -- -- --
2019-12-11 21:00:00 2.7 10 Sur 21 Sudoeste 0 -- -- --
2019-12-11 20:00:00 3.6 8 Sur 14 Sudeste 0 -- -- --
2019-12-11 19:00:00 5.1 4 Sur 13 Sur 0 -- -- --
2019-12-11 18:00:00 6.7 8 Sur 18 Sudeste 0 -- -- --
2019-12-11 17:00:00 7.1 2 Sur 7 Oeste 0 -- -- --
2019-12-11 16:00:00 7.5 0 Calma 19 Sudeste 0 -- -- --
2019-12-11 15:00:00 7.9 9 Sur 21 Sudeste 0 -- -- 99
2019-12-11 14:00:00 8.4 10 Sudoeste 17 Sur 0 -- -- --
2019-12-11 13:00:00 7.9 3 Sur 14 Sur 0 -- -- --
2019-12-11 12:00:00 6.6 3 Sudeste 8 Sur 0 -- -- --
2019-12-11 11:00:00 4.3 0 Calma 7 Norte 0 -- -- --
2019-12-11 10:00:00 2 2 Noroeste 11 Noroeste 0 -- -- --
2019-12-11 09:00:00 0.6 3 Noroeste 9 Noroeste 0 -- -- --
2019-12-11 08:00:00 0.1 0 Calma 8 Nordeste 0 -- -- --
2019-12-11 07:00:00 0.4 3 Norte 12 Norte 0 -- -- --
2019-12-11 06:00:00 0 3 Norte 13 Noroeste 0 -- -- --
2019-12-11 05:00:00 -0.3 3 Norte 10 Norte 0 -- -- --
2019-12-11 04:00:00 -0.2 0 Calma 9 Noroeste 0 -- -- --
2019-12-11 03:00:00 0.1 0 Calma 6 Norte 0 -- -- --
2019-12-11 02:00:00 0.6 0 Calma 8 Norte 0 -- -- --
2019-12-11 01:00:00 0.8 0 Calma 8 Noroeste 0 -- -- --
2019-12-11 00:00:00 0.8 0 Calma 6 Sudeste 0 -- -- --
2019-12-10 23:00:00 1.4 0 Calma 7 Noroeste 0 -- -- --
2019-12-10 22:00:00 2.4 2 Norte 11 Noroeste 0 -- -- --
2019-12-10 21:00:00 2.9 2 Norte 6 Norte 0 -- -- --
2019-12-10 20:00:00 3.5 0 Calma 8 Norte 0 -- -- --
2019-12-10 19:00:00 4.5 0 Calma 4 Nordeste 0 -- -- --
2019-12-10 18:00:00 6.3 4 Sudeste 17 Sur 0 -- -- --
2019-12-10 17:00:00 8.1 9 Sur 18 Sudoeste 0 -- -- --
2019-12-10 16:00:00 9.6 10 Sudoeste 19 Sur 0 -- -- --
2019-12-10 15:00:00 11.9 11 Sudoeste 21 Sudeste 0 -- -- --
2019-12-10 14:00:00 12.8 13 Sur 22 Sur 0 -- -- --
2019-12-10 13:00:00 12.1 11 Sur 21 Sur 0 -- -- --
2019-12-10 12:00:00 10.8 9 Sur 22 Sudeste 0 -- -- 68
2019-12-10 11:00:00 10 10 Sur 24 Sur 0 -- -- --
2019-12-10 10:00:00 7.1 5 Sur 9 Sudeste 0 -- -- --
2019-12-10 09:00:00 6.7 5 Nordeste 27 Norte 0 -- -- --
2019-12-10 08:00:00 8.5 9 Noroeste 58 Norte 0 -- -- 67
2019-12-10 07:00:00 9.7 12 Norte 59 Noroeste 0 -- -- --
2019-12-10 06:00:00 9.6 18 Noroeste 52 Noroeste 0 -- -- --
2019-12-10 05:00:00 8.9 11 Norte 72 Noroeste 0 -- -- --
2019-12-10 04:00:00 8.5 14 Norte 45 Noroeste 0 -- -- --
2019-12-10 03:00:00 7.8 12 Norte 38 Noroeste 0 -- -- --
2019-12-10 02:00:00 7.7 12 Norte 36 Norte 0 -- -- --
2019-12-10 01:00:00 6.9 9 Nordeste 23 Noroeste 0 -- -- --
2019-12-10 00:00:00 5.7 6 Norte 16 Norte 0 -- -- --
2019-12-09 23:00:00 5.3 0 Calma 8 Sur 0 -- -- --
2019-12-09 22:00:00 6.1 0 Calma 19 Noroeste 0 -- -- --
2019-12-09 21:00:00 6.8 5 Norte 28 Norte 0 -- -- --
2019-12-09 20:00:00 6.2 2 Norte 6 Noroeste 0 -- -- --
2019-12-09 19:00:00 7.2 0 Calma 20 Norte 0 -- -- --
2019-12-09 18:00:00 7.9 5 Nordeste 23 Norte 0 -- -- --
2019-12-09 17:00:00 9.3 12 Norte 50 Norte 0 -- -- --
2019-12-09 16:00:00 11.3 15 Norte 51 Norte 0 -- -- --
2019-12-09 15:00:00 11.6 5 Nordeste 36 Noroeste 0 -- -- --
2019-12-09 14:00:00 9 9 Sudoeste 27 Sur 0 -- -- --
2019-12-09 13:00:00 7.1 17 Sur 27 Sur 0 -- -- --
2019-12-09 12:00:00 6.3 9 Sur 20 Sur 0 -- -- --
2019-12-09 11:00:00 4.5 3 Oeste 13 Oeste 0 -- -- --
2019-12-09 10:00:00 3.8 5 Sudoeste 13 Sur 0 -- -- --
2019-12-09 09:00:00 3.4 0 Calma 4 Nordeste 0 -- -- --
2019-12-09 08:00:00 3.2 0 Calma 9 Noroeste 0 -- -- --
2019-12-09 07:00:00 3.5 2 Norte 16 Sudeste 0 -- -- --
2019-12-09 06:00:00 2.7 6 Sur 14 Sur 0 -- -- --
2019-12-09 05:00:00 1.2 2 Sur 8 Sur 0 -- -- --
2019-12-09 04:00:00 1.8 0 Calma 2 Sur 0 -- -- --
2019-12-09 03:00:00 2.8 0 Calma 5 Sudeste 0 -- -- --
2019-12-09 02:00:00 3.9 3 Nordeste 6 Nordeste 0 -- -- --
2019-12-09 01:00:00 5.2 0 Calma 6 Norte 0 -- -- --
2019-12-09 00:00:00 5.8 0 Calma 5 Noroeste 0 -- -- --
2019-12-08 23:00:00 5.9 0 Calma 8 Nordeste 0 -- -- --
2019-12-08 22:00:00 6 3 Noroeste 8 Noroeste 0 -- -- --
2019-12-08 21:00:00 5.5 0 Calma 5 Noroeste 0 -- -- --
2019-12-08 20:00:00 5 0 Calma 5 Norte 0 -- -- --
2019-12-08 19:00:00 5.3 0 Calma 0 Calma 0 -- -- --
2019-12-08 18:00:00 6.7 0 Calma 3 Sudeste 0 -- -- --
2019-12-08 17:00:00 9.2 0 Calma 11 Sudoeste 0 -- -- --
2019-12-08 16:00:00 10.8 7 Sudoeste 14 Sur 0 -- -- --
2019-12-08 15:00:00 12.1 7 Sur 17 Sur 0 -- -- --
2019-12-08 14:00:00 12.2 6 Sur 10 Sudoeste 0 -- -- --
2019-12-08 13:00:00 9.8 0 Calma -- -- 0 -- -- --
2019-12-08 12:00:00 6.6 0 Calma -- -- 0 -- -- 93
2019-12-08 11:00:00 3.3 0 Calma 7 Nordeste 0 -- -- 98
2019-12-08 10:00:00 0.8 2 Norte 8 Norte 0 -- -- 98
2019-12-08 09:00:00 0.2 0 Calma 11 Noroeste 0 -- -- 98
2019-12-08 08:00:00 0.4 0 Calma 11 Noroeste 0 -- -- 98
2019-12-08 07:00:00 0.6 3 Norte 11 Norte 0 -- -- 98
2019-12-08 06:00:00 1 0 Calma 12 Noroeste 0 -- -- 98
2019-12-08 05:00:00 1.3 0 Calma 9 Norte 0 -- -- 98
2019-12-08 04:00:00 1.4 0 Calma 6 Norte 0 -- -- 97
2019-12-08 03:00:00 1.6 0 Calma 8 Noroeste 0 -- -- 96
2019-12-08 02:00:00 1.2 0 Calma 2 Nordeste 0 -- -- 95
2019-12-08 01:00:00 1.5 0 Calma 8 Norte 0 -- -- 95
2019-12-08 00:00:00 2.1 3 Norte 7 Norte 0 -- -- 95
2019-12-07 23:00:00 2.4 0 Calma 5 Nordeste 0 -- -- 93
2019-12-07 22:00:00 3 0 Calma 3 Sudeste 0 -- -- 91
2019-12-07 21:00:00 3.6 0 Calma 2 Norte 0 -- -- 89
2019-12-07 20:00:00 4.6 0 Calma 4 Nordeste 0 -- -- 88
2019-12-07 19:00:00 5.8 0 Calma 4 Norte 0 -- -- 85
2019-12-07 18:00:00 7.1 0 Calma 3 Sudeste 0 -- -- 78
2019-12-07 17:00:00 10.1 0 Calma 11 Sur 0 -- -- --
2019-12-07 16:00:00 12.5 8 Sur 18 Sur 0 -- -- --
2019-12-07 15:00:00 13.8 8 Sudeste 15 Sur 0 -- -- --
2019-12-07 14:00:00 13.6 5 Sur 14 Sur 0 -- -- --
2019-12-07 13:00:00 11 2 Sudeste 14 Sudeste 0 -- -- --
2019-12-07 12:00:00 8.4 0 Calma 4 Sur 0 -- -- 84
2019-12-07 11:00:00 4.9 0 Calma 8 Oeste 0 -- -- 95
2019-12-07 10:00:00 2.7 3 Norte 10 Noroeste 0 -- -- 96
2019-12-07 09:00:00 2.1 2 Nordeste 8 Nordeste 0 -- -- 96
2019-12-07 08:00:00 2.2 0 Calma 6 Nordeste 0 -- -- 96
2019-12-07 07:00:00 2.4 4 Nordeste 7 Norte 0 -- -- 96
2019-12-07 06:00:00 2.6 0 Calma 8 Norte 0 -- -- 96
2019-12-07 05:00:00 3.2 3 Norte 10 Norte 0 -- -- 95
2019-12-07 04:00:00 3.7 0 Calma 10 Norte 0 -- -- 94
2019-12-07 03:00:00 4.6 0 Calma 5 Nordeste 0 -- -- 93
2019-12-07 02:00:00 4.9 0 Calma 8 Norte 0 -- -- 93
2019-12-07 01:00:00 5.4 0 Calma 5 Norte 0 -- -- 92
2019-12-07 00:00:00 5.3 0 Calma 5 Norte 0 -- -- 95
2019-12-06 23:00:00 5 0 Calma 5 Norte 0 -- -- 95
2019-12-06 22:00:00 4.5 0 Calma 3 Sur 0 -- -- 94
2019-12-06 21:00:00 4.3 0 Calma 2 Sudeste 0 -- -- 91
2019-12-06 20:00:00 5 0 Calma 0 Calma 0 -- -- 90
2019-12-06 19:00:00 6 0 Calma 2 Sudeste 0 -- -- 86
2019-12-06 18:00:00 7.8 0 Calma 3 Sudeste 0 -- -- --
2019-12-06 17:00:00 9.9 0 Calma 12 Sudoeste 0 -- -- --
2019-12-06 16:00:00 11.6 5 Sur 14 Sur 0 -- -- --
2019-12-06 15:00:00 12.3 6 Sur 15 Sudeste 0 -- -- --
2019-12-06 14:00:00 12.1 8 Sudeste 17 Sudeste 0 -- -- --
2019-12-06 13:00:00 11.4 7 Sudeste 15 Sudeste 0 -- -- --
2019-12-06 12:00:00 8.7 0 Calma 6 Oeste 0 -- -- 90
2019-12-06 11:00:00 6 0 Calma 5 Sur 0 -- -- 97
2019-12-06 10:00:00 3.9 0 Calma 4 Noroeste 0 -- -- 97
2019-12-06 09:00:00 3.3 0 Calma 2 Noroeste 0 -- -- 97
2019-12-06 08:00:00 3.3 0 Calma 6 Noroeste 0 -- -- 96
2019-12-06 07:00:00 4.3 0 Calma 5 Norte 0 -- -- 96
2019-12-06 06:00:00 4.8 0 Calma 4 Norte 0 -- -- 98
2019-12-06 05:00:00 4.7 0 Calma 7 Nordeste 0 -- -- 98
2019-12-06 04:00:00 4.5 0 Calma 11 Norte 0 -- -- 97
2019-12-06 03:00:00 4.2 0 Calma 9 Nordeste 0 -- -- 96
2019-12-06 02:00:00 4.3 3 Nordeste 9 Nordeste 0 -- -- 96
2019-12-06 01:00:00 4 0 Calma 9 Nordeste 0 -- -- 95
2019-12-06 00:00:00 4.9 2 Nordeste 10 Norte 0 -- -- 95
2019-12-05 23:00:00 5.8 0 Calma 13 Norte 0 -- -- 94
2019-12-05 22:00:00 6.2 4 Norte 10 Noroeste 0 -- -- 94
2019-12-05 21:00:00 6.1 2 Nordeste 8 Nordeste 0 -- -- 94
2019-12-05 20:00:00 5.7 0 Calma 6 Nordeste 0 -- -- 91
2019-12-05 19:00:00 6.2 0 Calma 5 Nordeste 0 -- -- 88
2019-12-05 18:00:00 7.8 2 Nordeste 6 Nordeste 0 -- -- 85
2019-12-05 17:00:00 9.3 0 Calma 10 Nordeste 0 -- -- 78
2019-12-05 16:00:00 9.6 4 Nordeste 22 Este 0 -- -- 74
2019-12-05 15:00:00 9.8 0 Calma 14 Oeste 0 -- -- 79
2019-12-05 14:00:00 9.1 4 Nordeste 25 Nordeste 0 -- -- 76
2019-12-05 13:00:00 8.3 4 Sudeste 15 Sudoeste 0.1 -- -- 81
2019-12-05 12:00:00 8.4 2 Este 21 Sudeste 0.6 -- -- 85
2019-12-05 11:00:00 8.3 2 Oeste 11 Oeste 0.1 -- -- 92
2019-12-05 10:00:00 7.6 0 Calma 14 Sur 0.9 -- -- 92
2019-12-05 09:00:00 7.4 0 Calma 7 Oeste 0.4 -- -- 97
2019-12-05 08:00:00 7.2 0 Calma 2 Norte 0.6 -- -- 98
2019-12-05 07:00:00 7.2 0 Calma -- -- 0.6 -- -- 98
2019-12-05 06:00:00 7.3 0 Calma 4 Oeste 0.8 -- -- 96
2019-12-05 05:00:00 7.4 0 Calma 9 Sudoeste 0.4 -- -- 96
2019-12-05 04:00:00 7.5 5 Sudoeste 13 Sudoeste 0.3 -- -- 96
2019-12-05 03:00:00 7.3 2 Sur 10 Oeste 0.5 -- -- 96
2019-12-05 02:00:00 7.1 0 Calma 11 Oeste 0.8 -- -- 95
2019-12-05 01:00:00 7.2 2 Noroeste 12 Oeste 1.9 -- -- 95
2019-12-05 00:00:00 7.3 2 Oeste 14 Noroeste 2.8 -- -- 94
2019-12-04 23:00:00 7.7 4 Noroeste 17 Sudoeste 3.5 -- -- 93
2019-12-04 22:00:00 7.3 3 Noroeste 10 Noroeste 2.7 -- -- 96
2019-12-04 21:00:00 7.5 0 Calma 9 Noroeste 1.8 -- -- 96
2019-12-04 20:00:00 7.3 2 Sur 8 Sudoeste 1.6 -- -- 96
2019-12-04 19:00:00 7.3 2 Sur 11 Oeste 1.7 -- -- 94
2019-12-04 18:00:00 7.4 0 Calma 17 Sur 2.3 -- -- 93
2019-12-04 17:00:00 7.7 3 Oeste 19 Sur 2.9 -- -- 91
2019-12-04 16:00:00 7.8 5 Este 20 Nordeste 2.5 -- -- 89
2019-12-04 15:00:00 8 2 Nordeste 15 Sudeste 1.7 -- -- 88
2019-12-04 14:00:00 8.4 4 Sudeste 26 Este 1 -- -- 87
2019-12-04 13:00:00 8.6 6 Nordeste 21 Nordeste 0.4 -- -- 86
2019-12-04 12:00:00 8.5 0 Calma 26 Sudeste 1 -- -- 85
2019-12-04 11:00:00 8.8 7 Nordeste 32 Sudeste 0.5 -- -- 86
2019-12-04 10:00:00 8.1 4 Noroeste 29 Sudeste 0.6 -- -- 87
2019-12-04 09:00:00 8.4 2 Nordeste 43 Nordeste 0.3 -- -- 85
2019-12-04 08:00:00 8.1 7 Nordeste 23 Nordeste 0.6 -- -- 85
2019-12-04 07:00:00 8.9 0 Calma 22 Sudeste 0 -- -- 79
2019-12-04 06:00:00 8.9 5 Nordeste 25 Nordeste 0 -- -- 79
2019-12-04 05:00:00 9.1 6 Nordeste 27 Sur 0 -- -- 78
2019-12-04 04:00:00 9.4 3 Nordeste 21 Nordeste 0 -- -- 74
2019-12-04 03:00:00 9.3 6 Nordeste 25 Nordeste 0 -- -- 75
2019-12-04 02:00:00 9.1 6 Nordeste 35 Sudoeste 0 -- -- 75
2019-12-04 01:00:00 9.3 5 Este 26 Este 0 -- -- 75
2019-12-04 00:00:00 9.1 2 Nordeste 17 Este 0 -- -- 75
2019-12-03 23:00:00 8.9 4 Este 21 Este 0 -- -- 78
2019-12-03 22:00:00 8.7 9 Nordeste 30 Este 0 -- -- 79
2019-12-03 21:00:00 8.8 6 Norte 24 Noroeste 0 -- -- 79
2019-12-03 20:00:00 8.6 6 Norte 27 Nordeste 0 -- -- 75
2019-12-03 19:00:00 8.5 8 Norte 20 Nordeste 0 -- -- 71
2019-12-03 18:00:00 8.9 5 Norte 19 Nordeste 0 -- -- 68
2019-12-03 17:00:00 9.6 5 Este 24 Nordeste 0 -- -- 63
2019-12-03 16:00:00 9.8 10 Nordeste 27 Nordeste 0 -- -- --
2019-12-03 15:00:00 11 7 Nordeste 23 Nordeste 0 -- -- 57
2019-12-03 14:00:00 11 4 Sudoeste 21 Nordeste 0 -- -- 56
2019-12-03 13:00:00 10.3 3 Nordeste 28 Norte 0 -- -- 59
2019-12-03 12:00:00 8.2 4 Norte 26 Norte 0 -- -- 65
2019-12-03 11:00:00 3.1 4 Noroeste 15 Noroeste 0 -- -- 92
2019-12-03 10:00:00 -0.1 3 Nordeste 12 Norte 0 -- -- 98
2019-12-03 09:00:00 -1.6 2 Nordeste 10 Norte 0 -- -- 96
2019-12-03 08:00:00 -1.9 0 Calma 9 Norte 0 -- -- 96
2019-12-03 07:00:00 -1.7 0 Calma 8 Noroeste 0 -- -- 96
2019-12-03 06:00:00 -1.4 0 Calma 12 Noroeste 0 -- -- 96
2019-12-03 05:00:00 -1.5 2 Norte 8 Nordeste 0 -- -- 96
2019-12-03 04:00:00 -1 0 Calma 6 Noroeste 0 -- -- 96
2019-12-03 03:00:00 -0.8 2 Norte 10 Norte 0 -- -- 95
2019-12-03 02:00:00 -0.8 0 Calma 4 Noroeste 0 -- -- 95
2019-12-03 01:00:00 -0.4 0 Calma 5 Noroeste 0 -- -- 94
2019-12-03 00:00:00 0 0 Calma 2 Norte 0 -- -- 93
2019-12-02 23:00:00 0.7 0 Calma 4 Norte 0 -- -- 91
2019-12-02 22:00:00 1.7 0 Calma 5 Norte 0 -- -- 90
2019-12-02 21:00:00 2.7 0 Calma 5 Norte 0 -- -- 89
2019-12-02 20:00:00 3.8 0 Calma 10 Norte 0 -- -- 87
2019-12-02 19:00:00 4.7 0 Calma 4 Nordeste 0 -- -- 83
2019-12-02 18:00:00 6.2 0 Calma 2 Norte 0 -- -- 76
2019-12-02 17:00:00 8.8 0 Calma 10 Sur 0 -- -- 65
2019-12-02 16:00:00 11.1 6 Sudoeste 15 Sudeste 0 -- -- --
2019-12-02 15:00:00 12.5 8 Sur 17 Sudeste 0 -- -- --
2019-12-02 14:00:00 12.3 5 Sur 9 Sur 0 -- -- --
2019-12-02 13:00:00 9.9 0 Calma 4 Nordeste 0 -- -- 71
2019-12-02 12:00:00 8 0 Calma 5 Sudeste 0 -- -- 85
2019-12-02 11:00:00 5.1 0 Calma 4 Nordeste 0 -- -- 98
2019-12-02 10:00:00 1.5 0 Calma 3 Noroeste 0 -- -- 99
2019-12-02 09:00:00 0.1 0 Calma 8 Oeste 0 -- -- 98
2019-12-02 08:00:00 -0.1 0 Calma 5 Norte 0 -- -- 98
2019-12-02 07:00:00 0.3 0 Calma 8 Noroeste 0 -- -- 98
2019-12-02 06:00:00 0.8 0 Calma 9 Noroeste 0 -- -- 97
2019-12-02 05:00:00 1.2 0 Calma 7 Noroeste 0 -- -- 96
2019-12-02 04:00:00 1.5 0 Calma 12 Noroeste 0 -- -- 96
2019-12-02 03:00:00 2.3 2 Norte 8 Noroeste 0 -- -- 96
2019-12-02 02:00:00 2.6 0 Calma 4 Noroeste 0 -- -- 95
2019-12-02 01:00:00 3 0 Calma 4 Sur 0 -- -- 94
2019-12-02 00:00:00 3.6 0 Calma 0 Calma 0 -- -- 93
2019-12-01 23:00:00 4.4 0 Calma 3 Nordeste 0 -- -- 91
2019-12-01 22:00:00 5.6 0 Calma 3 Sur 0 -- -- --
2019-12-01 21:00:00 6.3 0 Calma 5 Sudeste 0 -- -- --
2019-12-01 20:00:00 6.8 3 Sur 6 Sur 0 -- -- --
2019-12-01 19:00:00 7.8 0 Calma 3 Sudeste 0 -- -- --
2019-12-01 18:00:00 8.4 0 Calma 5 Sur 0 -- -- 90
2019-12-01 17:00:00 10.2 3 Sur 17 Sur 0 -- -- --
2019-12-01 16:00:00 11.4 11 Sur 19 Sur 0 -- -- --
2019-12-01 15:00:00 12.5 7 Sur 14 Sur 0 -- -- --
2019-12-01 14:00:00 11.7 7 Sur 15 Sudeste 0 -- -- --
2019-12-01 13:00:00 10.9 10 Sur 19 Sudoeste 0 -- -- --
2019-12-01 12:00:00 10.4 3 Sudoeste 10 Sur 0 -- -- --
2019-12-01 11:00:00 9.4 0 Calma 4 Nordeste 0 -- -- --
2019-12-01 10:00:00 8.8 0 Calma 3 Nordeste 0 -- -- --
2019-12-01 09:00:00 8.4 0 Calma 4 Nordeste 0.1 -- -- --
2019-12-01 08:00:00 8.5 0 Calma 0 Calma 0 -- -- --
2019-12-01 07:00:00 8.4 0 Calma 3 Norte 0 -- -- --
2019-12-01 06:00:00 8.2 0 Calma 0 Calma 0.3 -- -- --
2019-12-01 05:00:00 8.1 0 Calma 3 Este 0.8 -- -- --
2019-12-01 04:00:00 8 0 Calma 4 Sur 0 -- -- --
2019-12-01 03:00:00 7.9 0 Calma 3 Oeste 0 -- -- --
2019-12-01 02:00:00 7.6 0 Calma 4 Sur 0 -- -- --
2019-12-01 01:00:00 7.5 0 Calma 13 Oeste 0 -- -- --
2019-12-01 00:00:00 7.5 0 Calma 5 Sudeste 0 -- -- --
2019-11-30 23:00:00 6.9 0 Calma 4 Este 0 -- -- --
2019-11-30 22:00:00 6.4 0 Calma 4 Sur 0 -- -- --
2019-11-30 21:00:00 6.5 0 Calma 3 Sur 0 -- -- --
2019-11-30 20:00:00 7.5 0 Calma 3 Sur 0 -- -- --
2019-11-30 19:00:00 9.2 0 Calma 7 Sur 0 -- -- 91
2019-11-30 18:00:00 10.6 2 Sur 11 Sur 0 -- -- --
2019-11-30 17:00:00 12.7 4 Sudoeste 18 Sur 0 -- -- --
2019-11-30 16:00:00 13.5 8 Sur 25 Sur 0 -- -- --
2019-11-30 15:00:00 14.1 10 Sur 21 Sudeste 0 -- -- --
2019-11-30 14:00:00 13.7 9 Sur 20 Sudeste 0 -- -- --
2019-11-30 13:00:00 12.3 10 Sudeste 21 Sur 0 -- -- --
2019-11-30 12:00:00 11 10 Sur 23 Sudeste 0 -- -- --
2019-11-30 11:00:00 9.9 6 Sur 12 Sur 0 -- -- --
2019-11-30 10:00:00 6.8 2 Nordeste 5 Nordeste 0 -- -- --
2019-11-30 09:00:00 5.8 0 Calma 6 Nordeste 0 -- -- --
2019-11-30 08:00:00 5.9 0 Calma 5 Nordeste 0 -- -- --
2019-11-30 07:00:00 6 2 Nordeste 5 Nordeste 0 -- -- --
2019-11-30 06:00:00 5.7 0 Calma 5 Nordeste 0 -- -- 99
2019-11-30 05:00:00 7 3 Nordeste 8 Nordeste 0 -- -- 95
2019-11-30 04:00:00 7.7 5 Nordeste 10 Nordeste 0 -- -- 97
2019-11-30 03:00:00 8.4 0 Calma 6 Nordeste 0 -- -- 86
2019-11-30 02:00:00 8.6 3 Nordeste 8 Nordeste 0 -- -- 85
2019-11-30 01:00:00 9.2 0 Calma 4 Norte 0 -- -- 86
2019-11-30 00:00:00 10 0 Calma 6 Sur 0 -- -- 90
2019-11-29 23:00:00 10.4 0 Calma 8 Sur 0 -- -- 89
2019-11-29 22:00:00 10.6 3 Sur 8 Sudeste 0 -- -- 88
2019-11-29 21:00:00 10.6 0 Calma 2 Nordeste 0 -- -- 85
2019-11-29 20:00:00 10.7 0 Calma 4 Sudoeste 0 -- -- 83
2019-11-29 19:00:00 11.1 3 Norte 5 Norte 0 -- -- 84
2019-11-29 18:00:00 11.4 0 Calma 9 Nordeste 0 -- -- 78
2019-11-29 17:00:00 12.2 2 Este 12 Este 0 -- -- --
2019-11-29 16:00:00 13.2 2 Sudoeste 13 Sur 0 -- -- --
2019-11-29 15:00:00 13.6 9 Sur 16 Sur 0 -- -- --
2019-11-29 14:00:00 14 10 Sur 18 Sur 0 -- -- --
2019-11-29 13:00:00 13.3 7 Sur 12 Sur 0 -- -- 71
2019-11-29 12:00:00 10.3 0 Calma 6 Sur 0 -- -- 85
2019-11-29 11:00:00 7.5 0 Calma 14 Noroeste 0 -- -- 95
2019-11-29 10:00:00 5.8 3 Noroeste 11 Noroeste 0 -- -- 97
2019-11-29 09:00:00 5.3 3 Norte 10 Norte 0 -- -- 98
2019-11-29 08:00:00 4.5 2 Norte 7 Noroeste 0 -- -- 96
2019-11-29 07:00:00 4.2 0 Calma 5 Norte 0 -- -- 96
2019-11-29 06:00:00 4.6 0 Calma 6 Norte 0 -- -- 97
2019-11-29 05:00:00 4.8 0 Calma 4 Sur 0 -- -- 97
2019-11-29 04:00:00 4.5 0 Calma 2 Sur 0 -- -- 97
2019-11-29 03:00:00 4.6 0 Calma 2 Noroeste 0 -- -- 96
2019-11-29 02:00:00 4.7 0 Calma 4 Nordeste 0 -- -- 95
2019-11-29 01:00:00 5.3 0 Calma 4 Sudeste 0 -- -- 94
2019-11-29 00:00:00 6.4 0 Calma 4 Sur 0 -- -- 94
2019-11-28 23:00:00 6.9 0 Calma 5 Norte 0 -- -- 94
2019-11-28 22:00:00 6.6 0 Calma 7 Sudeste 0 -- -- 93
2019-11-28 21:00:00 7 0 Calma 5 Oeste 0 -- -- 91
2019-11-28 20:00:00 7.9 0 Calma 9 Sudeste 0 -- -- 89
2019-11-28 19:00:00 8.4 0 Calma 6 Sudeste 0 -- -- 86
2019-11-28 18:00:00 8.9 0 Calma 5 Norte 0 -- -- 81
2019-11-28 17:00:00 10.6 0 Calma 10 Sudeste 0 -- -- 73
2019-11-28 16:00:00 12.8 8 Sur 18 Sur 0 -- -- 64
2019-11-28 15:00:00 13.7 9 Sur 16 Sudeste 0 -- -- 63
2019-11-28 14:00:00 12.9 6 Sur 19 Sur 0 -- -- 68
2019-11-28 13:00:00 12.1 9 Sur 20 Sur 0 -- -- 69
2019-11-28 12:00:00 10.6 9 Sur 17 Sur 0 -- -- 80
2019-11-28 11:00:00 6.7 0 Calma 4 Norte 0 -- -- 94
2019-11-28 10:00:00 3.4 0 Calma 3 Este 0 -- -- 99
2019-11-28 09:00:00 2.4 0 Calma 3 Sudeste 0 -- -- 99
2019-11-28 08:00:00 2.4 0 Calma 6 Nordeste 0 -- -- 99
2019-11-28 07:00:00 3 0 Calma 3 Nordeste 0 -- -- 99
2019-11-28 06:00:00 3 0 Calma 3 Noroeste 0 -- -- 98
2019-11-28 05:00:00 3.3 0 Calma 6 Nordeste 0 -- -- 98
2019-11-28 04:00:00 3.8 0 Calma 8 Noroeste 0 -- -- 98
2019-11-28 03:00:00 3.7 0 Calma 4 Sudeste 0 -- -- 96
2019-11-28 02:00:00 4.1 0 Calma 2 Norte 0 -- -- 95
2019-11-28 01:00:00 5.3 0 Calma 4 Sudeste 0 -- -- 94
2019-11-28 00:00:00 6.3 0 Calma 4 Noroeste 0 -- -- 93
2019-11-27 23:00:00 7.4 0 Calma 3 Sudeste 0 -- -- 91
2019-11-27 22:00:00 8.2 0 Calma 7 Sudeste 0 -- -- 89
2019-11-27 21:00:00 8.6 0 Calma 5 Sur 0 -- -- 87
2019-11-27 20:00:00 9.2 4 Sudeste 6 Sudeste 0 -- -- 83
2019-11-27 19:00:00 9.9 0 Calma 5 Sur 0 -- -- 79
2019-11-27 18:00:00 11.1 0 Calma 14 Sur 0 -- -- 73
2019-11-27 17:00:00 12.1 9 Sur 22 Sur 0 -- -- 70
2019-11-27 16:00:00 13.1 3 Sur 12 Sudeste 0 -- -- 66
2019-11-27 15:00:00 13 8 Sur 15 Sudeste 0 -- -- 68
2019-11-27 14:00:00 15.4 7 Sudeste -- -- -- -- -- 72
2019-11-27 06:00:00 6.3 0 Calma 7 Noroeste 0 -- -- --
2019-11-27 05:00:00 7 5 Sur 13 Sur 0 -- -- --
2019-11-27 04:00:00 5.9 0 Calma 6 Sudeste 0 -- -- --
2019-11-27 03:00:00 6 0 Calma 10 Norte 0 -- -- --
2019-11-27 02:00:00 6.6 0 Calma 7 Sudoeste 0 -- -- --
2019-11-27 01:00:00 6.9 2 Nordeste 8 Nordeste 0 -- -- --
2019-11-27 00:00:00 6.5 0 Calma 7 Sur 0.1 -- -- --
2019-11-26 23:00:00 6 0 Calma 7 Sudeste 0 -- -- 99
2019-11-26 22:00:00 5.9 0 Calma 5 Sur 0 -- -- --
2019-11-26 21:00:00 5.7 0 Calma 3 Sur 0 -- -- 98
2019-11-26 20:00:00 6.7 0 Calma 5 Sudeste 0 -- -- --
2019-11-26 19:00:00 8 0 Calma 3 Este 0 -- -- --
2019-11-26 18:00:00 9.6 0 Calma 11 Sudoeste 0 -- -- --
2019-11-26 17:00:00 11.5 5 Sur 16 Sur 0 -- -- --
2019-11-26 16:00:00 12.2 9 Sudeste 21 Sur 0 -- -- --
2019-11-26 15:00:00 12.7 14 Sudeste 23 Sudeste 0 -- -- --
2019-11-26 14:00:00 13.5 8 Sur 17 Sudoeste 0 -- -- --
2019-11-26 13:00:00 12.5 6 Sur 15 Sudeste 0 -- -- --
2019-11-26 12:00:00 10.1 6 Sur 12 Sudoeste 0 -- -- --
2019-11-26 11:00:00 5.1 0 Calma 5 Sudeste 0 -- -- 93
2019-11-26 10:00:00 1.8 0 Calma 5 Noroeste 0 -- -- 98
2019-11-26 09:00:00 -0.2 0 Calma 7 Norte 0 -- -- 98
2019-11-26 08:00:00 -0.5 0 Calma 7 Oeste 0 -- -- 97
2019-11-26 07:00:00 -0.6 0 Calma 5 Noroeste 0 -- -- 97
2019-11-26 06:00:00 -0.3 0 Calma 6 Noroeste 0 -- -- 97
2019-11-26 05:00:00 0 0 Calma 5 Norte 0 -- -- 97
2019-11-26 04:00:00 0.5 0 Calma 9 Noroeste 0 -- -- 97
2019-11-26 03:00:00 0.7 0 Calma 5 Nordeste 0 -- -- 96
2019-11-26 02:00:00 1.1 0 Calma 10 Norte 0 -- -- 95
2019-11-26 01:00:00 1.3 0 Calma 7 Norte 0 -- -- 94
2019-11-26 00:00:00 1.8 0 Calma 9 Noroeste 0 -- -- 94
2019-11-25 23:00:00 2.4 0 Calma 10 Noroeste 0 -- -- 93
2019-11-25 22:00:00 2.7 0 Calma 5 Oeste 0 -- -- 90
2019-11-25 21:00:00 3.5 0 Calma 4 Nordeste 0 -- -- 88
2019-11-25 20:00:00 4.6 0 Calma 5 Norte 0 -- -- 85
2019-11-25 19:00:00 5.8 0 Calma 5 Nordeste 0 -- -- --
2019-11-25 18:00:00 7.4 0 Calma 4 Norte 0 -- -- --
2019-11-25 17:00:00 10.3 0 Calma 12 Sur 0 -- -- --
2019-11-25 16:00:00 13 6 Sur 12 Sur 0 -- -- --
2019-11-25 15:00:00 13.8 6 Sur 15 Sur 0 -- -- --
2019-11-25 14:00:00 13.5 5 Sur 10 Sur 0 -- -- --
2019-11-25 13:00:00 11.5 4 Sur 10 Sur 0 -- -- --
2019-11-25 12:00:00 8.1 0 Calma 6 Noroeste 0 -- -- --
2019-11-25 11:00:00 4.5 0 Calma 7 Norte 0 -- -- 93
2019-11-25 10:00:00 2.2 2 Norte 8 Norte 0 -- -- 98
2019-11-25 09:00:00 1.2 0 Calma 7 Noroeste 0 -- -- 98
2019-11-25 08:00:00 1.3 2 Noroeste 8 Noroeste 0 -- -- 97
2019-11-25 07:00:00 1.5 0 Calma 10 Noroeste 0 -- -- 97
2019-11-25 06:00:00 1.9 2 Noroeste 11 Noroeste 0 -- -- 97
2019-11-25 05:00:00 2.3 2 Noroeste 10 Noroeste 0 -- -- 97
2019-11-25 04:00:00 2.7 2 Noroeste 12 Noroeste 0 -- -- 97
2019-11-25 03:00:00 2.5 2 Norte 13 Noroeste 0 -- -- 97
2019-11-25 02:00:00 2 2 Noroeste 9 Noroeste 0 -- -- 97
2019-11-25 01:00:00 1.4 0 Calma 5 Noroeste 0 -- -- 97
2019-11-25 00:00:00 0.5 0 Calma 4 Noroeste 0 -- -- 95
2019-11-24 23:00:00 0.9 0 Calma 0 Calma 0 -- -- 94
2019-11-24 22:00:00 2 0 Calma 3 Sudeste 0 -- -- 94
2019-11-24 21:00:00 2.6 0 Calma 3 Nordeste 0 -- -- 93
2019-11-24 20:00:00 3.5 0 Calma 6 Nordeste 0 -- -- 89
2019-11-24 19:00:00 4.8 0 Calma 4 Nordeste 0 -- -- 87
2019-11-24 18:00:00 6.3 0 Calma 3 Sur 0 -- -- --
2019-11-24 17:00:00 8.7 0 Calma 17 Sudeste 0 -- -- --
2019-11-24 16:00:00 10.8 9 Sudeste 25 Sur 0 -- -- --
2019-11-24 15:00:00 11.6 14 Sudeste 25 Sudeste 0 -- -- --
2019-11-24 14:00:00 11.7 13 Sur 24 Sur 0 -- -- --
2019-11-24 13:00:00 11.3 8 Sur 21 Sudoeste 0 -- -- --
2019-11-24 12:00:00 8.8 2 Sur 11 Sur 0 -- -- --
2019-11-24 11:00:00 5.1 2 Sudeste 5 Sudeste 0 -- -- 95
2019-11-24 10:00:00 2.4 0 Calma 3 Norte 0 -- -- 98
2019-11-24 09:00:00 1.8 0 Calma 6 Noroeste 0 -- -- 98
2019-11-24 08:00:00 2 0 Calma 8 Noroeste 0 -- -- 98
2019-11-24 07:00:00 2.1 0 Calma 5 Nordeste 0 -- -- 98
2019-11-24 06:00:00 1.8 0 Calma 7 Noroeste 0 -- -- 97
2019-11-24 05:00:00 2.6 0 Calma 3 Nordeste 0 -- -- 97
2019-11-24 04:00:00 3.4 0 Calma 2 Norte 0 -- -- 97
2019-11-24 03:00:00 3.5 0 Calma 5 Sudeste 0 -- -- 96
2019-11-24 02:00:00 3.8 0 Calma 3 Sudeste 0 -- -- 95
2019-11-24 01:00:00 4 0 Calma 4 Nordeste 0 -- -- 93
2019-11-24 00:00:00 4.8 0 Calma 16 Sur 0 -- -- 91
2019-11-23 23:00:00 5.9 4 Sur 18 Sur 0 -- -- --
2019-11-23 22:00:00 6.6 10 Sur 26 Sudeste 0 -- -- --
2019-11-23 21:00:00 7.2 8 Sur 26 Sur 0 -- -- 89
2019-11-23 20:00:00 7.2 10 Sur 25 Sur 0 -- -- 96
2019-11-23 19:00:00 7.4 8 Sur 22 Sur 0 -- -- --
2019-11-23 18:00:00 8.2 5 Sudoeste 13 Sur 0 -- -- --
2019-11-23 17:00:00 9.2 3 Sur 13 Sudeste 0 -- -- --
2019-11-23 16:00:00 9.5 4 Sur 11 Sur 0 -- -- --
2019-11-23 15:00:00 9.6 6 Sudeste 14 Sur 0 -- -- --
2019-11-23 14:00:00 9.5 7 Sur 17 Sur 0 -- -- --
2019-11-23 13:00:00 9.5 8 Sur 15 Sur 0 -- -- --
2019-11-23 12:00:00 8.9 7 Sur 19 Sudeste 0 -- -- --
2019-11-23 11:00:00 7.8 0 Calma 12 Sudeste 0 -- -- --
2019-11-23 10:00:00 5.9 2 Nordeste 8 Norte 0 -- -- 99
2019-11-23 09:00:00 5 0 Calma 3 Noroeste 0 -- -- 99
2019-11-23 08:00:00 4.5 0 Calma 4 Noroeste 0 -- -- 98
2019-11-23 07:00:00 5.6 0 Calma 12 Sudeste 0 -- -- 99
2019-11-23 06:00:00 6.6 0 Calma 10 Sur 0 -- -- 98
2019-11-23 05:00:00 7.4 2 Sur 13 Sur 0.1 -- -- --
2019-11-23 04:00:00 8.2 0 Calma 10 Sudeste 0 -- -- --
2019-11-23 03:00:00 9.5 5 Sur 18 Sur 0.4 -- -- --
2019-11-23 02:00:00 -- 6 Sur 16 Sur 1.9 -- -- --
2019-11-23 01:00:00 -- 7 Sur 22 Sur 6.1 -- -- --
2019-11-23 00:00:00 -- 0 Calma 4 Oeste 3.8 -- -- --
2019-11-22 23:00:00 -- 0 Calma 3 Oeste 6.1 -- -- --
2019-11-22 22:00:00 -- 0 Calma 5 Oeste 4.4 -- -- --
2019-11-22 21:00:00 -- 0 Calma 3 Sudoeste 6 -- -- --
2019-11-22 20:00:00 -- 0 Calma 9 Oeste 3.2 -- -- --
2019-11-22 19:00:00 -- 0 Calma 10 Sur 1.2 -- -- --
2019-11-22 18:00:00 -- 5 Sur 13 Sudoeste 0.9 -- -- --
2019-11-22 17:00:00 -- 6 Sudoeste 17 Sur 0.3 -- -- --
2019-11-22 16:00:00 -- 3 Sur 24 Sur 0 -- -- --
2019-11-22 15:00:00 -- 9 Sur 23 Sur 0 -- -- --
2019-11-22 14:00:00 -- 0 Calma 4 Sur 0.1 -- -- 99
2019-11-22 13:00:00 -- 0 Calma 4 Sudeste 0.2 -- -- 98
2019-11-22 12:00:00 -- 0 Calma 4 Sudoeste 1.2 -- -- 98
2019-11-22 11:00:00 -- 0 Calma 3 Sudeste 0.1 -- -- 97
2019-11-22 10:00:00 -- 0 Calma 2 Sudeste 0 -- -- 98
2019-11-22 09:00:00 -- 0 Calma 3 Sur 0 -- -- 98
2019-11-22 08:00:00 -- 0 Calma 3 Norte 0 -- -- 98
2019-11-22 07:00:00 -- 0 Calma 5 Noroeste 0 -- -- 98
2019-11-22 06:00:00 -- 0 Calma 2 Noroeste 0 -- -- 98
2019-11-22 05:00:00 -- 0 Calma 2 Sudeste 0 -- -- 97
2019-11-22 04:00:00 -- 0 Calma 3 Nordeste 0 -- -- 97
2019-11-22 03:00:00 -- 0 Calma 5 Norte 0 -- -- 97
2019-11-22 02:00:00 -- 0 Calma 3 Norte 0 -- -- 97
2019-11-22 01:00:00 -- 0 Calma 4 Sur 0 -- -- 95
2019-11-22 00:00:00 -- 0 Calma 4 Sudeste 0 -- -- 94
2019-11-21 23:00:00 -- 0 Calma 3 Sudeste 0 -- -- 93
2019-11-21 22:00:00 -- 0 Calma 4 Sudeste 0 -- -- 91
2019-11-21 21:00:00 -- 0 Calma 3 Este 0 -- -- 89
2019-11-21 20:00:00 -- 0 Calma 5 Sudeste 0 -- -- 83
2019-11-21 19:00:00 -- 0 Calma 13 Sur 0 -- -- 81
2019-11-21 18:00:00 -- 8 Sur 15 Sudoeste 0 -- -- 82
2019-11-21 17:00:00 -- 7 Sur 21 Sur 0 -- -- --
2019-11-21 16:00:00 -- 9 Sur 28 Sur 0 -- -- --
2019-11-21 15:00:00 -- 9 Sur 23 Sudoeste 0 -- -- --
2019-11-21 14:00:00 -- 8 Sudeste 16 Sur 0 -- -- --
2019-11-21 13:00:00 -- 8 Sur 23 Sur 0 -- -- --
2019-11-21 12:00:00 -- 14 Sudeste 26 Sudeste 0 -- -- --
2019-11-21 11:00:00 -- 0 Calma 4 Sur 0 -- -- 87
2019-11-21 10:00:00 -- 0 Calma 2 Nordeste 0 -- -- 98
2019-11-21 09:00:00 -- 0 Calma 0 Calma 0 -- -- 97
2019-11-21 08:00:00 -- 0 Calma 2 Sudeste 0 -- -- 97
2019-11-21 07:00:00 -- 0 Calma 2 Sudeste 0 -- -- 97
2019-11-21 06:00:00 -- 0 Calma 3 Sudeste 0 -- -- 97
2019-11-21 05:00:00 -- 0 Calma 4 Sur 0 -- -- 97
2019-11-21 04:00:00 -- 0 Calma 2 Sudeste 0 -- -- 96
2019-11-21 03:00:00 -- 0 Calma -- -- 0 -- -- 94
2019-11-21 02:00:00 -- 0 Calma 2 Sudeste 0 -- -- 94
2019-11-21 01:00:00 -- 0 Calma -- -- 0 -- -- 93
2019-11-21 00:00:00 -- 0 Calma 5 Nordeste 0 -- -- 92
2019-11-20 23:00:00 -- 0 Calma 7 Nordeste 0 -- -- 90
2019-11-20 22:00:00 -- 0 Calma 5 Nordeste 0 -- -- 86
2019-11-20 21:00:00 -- 2 Nordeste 6 Nordeste 0 -- -- 86
2019-11-20 20:00:00 -- 0 Calma 3 Sudeste 0 -- -- 85
2019-11-20 19:00:00 -- 0 Calma 11 Sur 0 -- -- 78
2019-11-20 18:00:00 -- 6 Sur 12 Sudoeste 0 -- -- 71
2019-11-20 17:00:00 -- 6 Sudoeste 16 Sudeste 0 -- -- --
2019-11-20 16:00:00 -- 7 Sur 18 Sur 0 -- -- --
2019-11-20 15:00:00 -- 9 Sur 26 Sur 0 -- -- --
2019-11-20 14:00:00 -- 9 Sur 24 Sur 0 -- -- --
2019-11-20 13:00:00 -- 8 Sur 15 Sur 0 -- -- 70
2019-11-20 12:00:00 -- 7 Sur 15 Sur 0 -- -- 84
2019-11-20 11:00:00 -- 0 Calma 4 Sur 0 -- -- 96
2019-11-20 10:00:00 -- 0 Calma 2 Sudeste 0 -- -- 98
2019-11-20 09:00:00 -- 0 Calma 0 Calma 0 -- -- 97
2019-11-20 08:00:00 -- 0 Calma -- -- 0 -- -- 97
2019-11-20 07:00:00 -- 0 Calma 2 Noroeste 0 -- -- 97
2019-11-20 06:00:00 -- 0 Calma 3 Noroeste 0 -- -- 96
2019-11-20 05:00:00 -- 0 Calma 4 Noroeste 0 -- -- 96
2019-11-20 04:00:00 -- 0 Calma 4 Noroeste 0 -- -- 96
2019-11-20 03:00:00 -- 0 Calma 2 Norte 0 -- -- 95
2019-11-20 02:00:00 -- 0 Calma 5 Sudeste 0 -- -- 95
2019-11-20 01:00:00 -- 0 Calma 3 Norte 0 -- -- 94
2019-11-20 00:00:00 -- 0 Calma 2 Este 0 -- -- 93
2019-11-19 23:00:00 -- 0 Calma 3 Sur 0 -- -- 93
2019-11-19 22:00:00 -- 0 Calma 3 Este 0 -- -- 90
2019-11-19 21:00:00 -- 0 Calma 3 Este 0 -- -- 88
2019-11-19 20:00:00 -- 0 Calma 3 Este 0 -- -- 84
2019-11-19 19:00:00 -- 0 Calma 4 Norte 0 -- -- 79
2019-11-19 18:00:00 -- 0 Calma 6 Sudeste 0 -- -- 72
2019-11-19 17:00:00 -- 0 Calma 10 Sudoeste 0 -- -- 62
2019-11-19 16:00:00 -- 6 Sur 16 Sur 0 -- -- 54
2019-11-19 15:00:00 -- 10 Sur 22 Sudoeste 0 -- -- 98
2019-11-19 14:00:00 -- 13 Sur 22 Sur 0 -- -- --
2019-11-19 13:00:00 -- 10 Sur 18 Sur 0 -- -- 86
2019-11-19 12:00:00 -- 3 Sudeste 7 Sudeste 0 -- -- 70
2019-11-19 11:00:00 -- 2 Sur 5 Oeste 0 -- -- 87
2019-11-19 10:00:00 -1.6 0 Calma 3 Sudeste 0 -- -- 97
2019-11-19 09:00:00 -4.3 0 Calma 5 Norte 0 -- -- 97
2019-11-19 08:00:00 -4.5 0 Calma 3 Sudeste 0 -- -- 97
2019-11-19 07:00:00 -4.3 0 Calma 5 Noroeste 0 -- -- 96
2019-11-19 06:00:00 -4.3 0 Calma 0 Calma 0 -- -- 96
2019-11-19 05:00:00 -3.7 0 Calma 4 Sudeste 0 -- -- 96
2019-11-19 04:00:00 -3.2 0 Calma 2 Norte 0 -- -- 96
2019-11-19 03:00:00 -2.9 0 Calma 3 Nordeste 0 -- -- 95
2019-11-19 02:00:00 -2.5 0 Calma 3 Sudeste 0 -- -- 94
2019-11-19 01:00:00 -1.9 0 Calma 0 Calma 0 -- -- 94
2019-11-19 00:00:00 -1.2 0 Calma 4 Nordeste 0 -- -- 93
2019-11-18 23:00:00 -0.6 0 Calma 5 Noroeste 0 -- -- 93
2019-11-18 22:00:00 0.4 0 Calma 5 Norte 0 -- -- 92
2019-11-18 21:00:00 1.6 0 Calma 7 Nordeste 0 -- -- 90
2019-11-18 20:00:00 2.9 0 Calma 5 Sur 0 -- -- 88
2019-11-18 19:00:00 4.5 0 Calma 4 Sur 0 -- -- 85
2019-11-18 18:00:00 5.8 2 Sudeste 8 Sudeste 0 -- -- 80
2019-11-18 17:00:00 7.9 4 Sur 15 Sur 0 -- -- 92
2019-11-18 16:00:00 9.4 8 Sudeste 17 Sudeste 0 -- -- 70
2019-11-18 15:00:00 10 8 Sur 16 Sudoeste 0 -- -- 74
2019-11-18 14:00:00 9.9 3 Sur 10 Nordeste 0 -- -- 99
2019-11-18 13:00:00 8.6 4 Nordeste 12 Nordeste 0 -- -- --
2019-11-18 12:00:00 8 4 Nordeste 14 Nordeste 0 -- -- --
2019-11-18 11:00:00 5 4 Noroeste 13 Noroeste 0 -- -- 87
2019-11-18 10:00:00 1.5 3 Nordeste 11 Norte 0 -- -- 98
2019-11-18 09:00:00 -0.4 4 Nordeste 10 Norte 0 -- -- 98
2019-11-18 08:00:00 -1.3 0 Calma 6 Noroeste 0 -- -- 98
2019-11-18 07:00:00 -1.8 0 Calma 8 Noroeste 0 -- -- 98
2019-11-18 06:00:00 -1.4 2 Norte 6 Noroeste 0 -- -- 98
2019-11-18 05:00:00 -1.1 0 Calma 8 Norte 0 -- -- 98
2019-11-18 04:00:00 -0.9 2 Norte 11 Noroeste 0 -- -- 98
2019-11-18 03:00:00 -0.5 3 Noroeste 13 Noroeste 0 -- -- 97
2019-11-18 02:00:00 -0.6 0 Calma 9 Noroeste 0 -- -- 97
2019-11-18 01:00:00 -0.2 0 Calma 6 Nordeste 0 -- -- 95
2019-11-18 00:00:00 0.5 0 Calma 8 Noroeste 0 -- -- 94
2019-11-17 23:00:00 1.6 0 Calma 6 Nordeste 0 -- -- 93
2019-11-17 22:00:00 2.7 0 Calma 6 Noroeste 0 -- -- 92
2019-11-17 21:00:00 3.3 0 Calma 7 Norte 0 -- -- 91
2019-11-17 20:00:00 3.2 3 Norte 10 Norte 0 -- -- 91
2019-11-17 19:00:00 3.1 0 Calma 5 Sudeste 0 -- -- 89
2019-11-17 18:00:00 3.8 0 Calma 10 Sudoeste 0 -- -- 86
2019-11-17 17:00:00 5.8 7 Sur 12 Sur 0 -- -- 86
2019-11-17 16:00:00 6 5 Sur 13 Sudoeste 0 -- -- 89
2019-11-17 15:00:00 5.9 4 Sur 15 Sudoeste 0 -- -- 92
2019-11-17 14:00:00 4.5 7 Sur 19 Sur 0 -- -- 84
2019-11-17 13:00:00 3.6 10 Sur 22 Sudoeste 0 -- -- 88
2019-11-17 12:00:00 1.8 9 Sur 18 Sudoeste 0 -- -- 96
2019-11-17 11:00:00 0.6 6 Sur 12 Sudoeste 0 -- -- 98
2019-11-17 10:00:00 -0.6 0 Calma 6 Sur 0 -- -- 98
2019-11-17 09:00:00 -1.5 5 Sur 10 Sudeste 0 -- -- 98
2019-11-17 08:00:00 -1.7 0 Calma 6 Norte 0 -- -- 98
2019-11-17 07:00:00 -1.6 0 Calma 9 Noroeste 0 -- -- 98
2019-11-17 06:00:00 -2 0 Calma 7 Sur 0 -- -- 97
2019-11-17 05:00:00 -2.5 2 Sur 5 Sur 0 -- -- 97
2019-11-17 04:00:00 -2.3 0 Calma 4 Sudeste 0 -- -- 97
2019-11-17 03:00:00 -2.2 0 Calma 4 Sudeste 0 -- -- 96
2019-11-17 02:00:00 -1.9 0 Calma 4 Sudeste 0 -- -- 95
2019-11-17 01:00:00 -1.4 0 Calma 3 Sudeste 0 -- -- 95
2019-11-17 00:00:00 -1 2 Sur 5 Sudoeste 0 -- -- 94
2019-11-16 23:00:00 -0.3 0 Calma 7 Sur 0 -- -- 93
2019-11-16 22:00:00 0.5 0 Calma 6 Sudeste 0 -- -- 92
2019-11-16 21:00:00 1.1 0 Calma 6 Sur 0 -- -- 90
2019-11-16 20:00:00 1.5 0 Calma 5 Sudoeste 0 -- -- 88
2019-11-16 19:00:00 2.6 0 Calma 6 Sudeste 0 -- -- 83
2019-11-16 18:00:00 4.1 0 Calma 8 Sudeste 0 -- -- 78
2019-11-16 17:00:00 6.2 5 Sur 16 Sudeste 0 -- -- 71
2019-11-16 16:00:00 7.7 9 Sur 21 Sur 0 -- -- 65
2019-11-16 15:00:00 8.2 11 Sur 23 Sudeste 0 -- -- 63
2019-11-16 14:00:00 8.3 10 Sur 21 Sur 0 -- -- 61
2019-11-16 13:00:00 8.7 6 Sur 15 Sur 0 -- -- 62
2019-11-16 12:00:00 7.2 6 Sur 12 Sur 0 -- -- 76
2019-11-16 11:00:00 3.8 0 Calma 3 Nordeste 0 -- -- 79
2019-11-16 10:00:00 1 0 Calma 4 Sur 0 -- -- 94
2019-11-16 09:00:00 -1.8 0 Calma 3 Nordeste 0 -- -- 96
2019-11-16 08:00:00 -1.7 0 Calma 11 Norte 0 -- -- 95
2019-11-16 07:00:00 -1.2 2 Nordeste 10 Nordeste 0 -- -- 96
2019-11-16 06:00:00 -1.1 0 Calma 5 Nordeste 0 -- -- 96
2019-11-16 05:00:00 -1.2 0 Calma 6 Noroeste 0 -- -- 95
2019-11-16 04:00:00 -0.5 2 Noroeste 10 Noroeste 0 -- -- 95
2019-11-16 03:00:00 0.1 4 Norte 9 Noroeste 0 -- -- 94
2019-11-16 02:00:00 0.1 0 Calma 4 Norte 0 -- -- 93
2019-11-16 01:00:00 0.2 0 Calma 7 Norte 0 -- -- 91
2019-11-16 00:00:00 1.5 0 Calma 6 Norte 0 -- -- 90
2019-11-15 23:00:00 1.9 0 Calma 6 Nordeste 0 -- -- 89
2019-11-15 22:00:00 2.2 0 Calma 4 Este 0 -- -- 88
2019-11-15 21:00:00 2.7 0 Calma 4 Norte 0 -- -- 87
2019-11-15 20:00:00 3 0 Calma 9 Sudeste 0 -- -- 86
2019-11-15 19:00:00 3.6 3 Sur 9 Sur 0 -- -- 85
2019-11-15 18:00:00 4.3 3 Sur 12 Sudeste 0 -- -- 79
2019-11-15 17:00:00 5.6 6 Sur 17 Sur 0 -- -- 87
2019-11-15 16:00:00 6.9 9 Sur 22 Sudeste 0 -- -- 76
2019-11-15 15:00:00 7.6 12 Sur 24 Sudeste 0 -- -- 67
2019-11-15 14:00:00 8.1 11 Sur 26 Sudoeste 0 -- -- 66
2019-11-15 13:00:00 7.8 6 Sudeste 15 Sur 0 -- -- 74
2019-11-15 12:00:00 6.4 0 Calma 9 Nordeste 0 -- -- 77
2019-11-15 11:00:00 4.6 2 Nordeste 9 Nordeste 0 -- -- 88
2019-11-15 10:00:00 1.5 2 Norte 17 Noroeste 0 -- -- 96
2019-11-15 09:00:00 0 0 Calma 10 Norte 0 -- -- 98
2019-11-15 08:00:00 0.1 2 Norte 11 Noroeste 0 -- -- 98
2019-11-15 07:00:00 -0.2 0 Calma 9 Nordeste 0 -- -- 98
2019-11-15 06:00:00 0.3 0 Calma 5 Noroeste 0 -- -- 99
2019-11-15 05:00:00 0.3 0 Calma 7 Norte 0 -- -- 98
2019-11-15 04:00:00 0.2 0 Calma 5 Nordeste 0 -- -- 97
2019-11-15 03:00:00 0.9 0 Calma 4 Norte 0 -- -- 97
2019-11-15 02:00:00 0.9 0 Calma 10 Noroeste 0 -- -- 95
2019-11-15 01:00:00 2.1 2 Norte 11 Noroeste 0 -- -- 95
2019-11-15 00:00:00 3.2 3 Nordeste 9 Norte 0 -- -- 95